Data for 12/14/2016

Time Sea-Level Adjusted Pressure Absolute Pressure Temperature Relative Humidity Dew Point   
(mb) (inHg) (mb) (inHg) (C) (F) (%) (C) (F)
00:05 1021 30.15 850 25.1 -9.2 15.5 77 -12.5 9.5
00:10 1021 30.15 850 25.1 -9.1 15.5 71 -13.5 7.8
00:15 1021 30.15 850 25.1 -9.4 15 71 -13.7 7.3
00:20 1021 30.15 850 25.1 -9.3 15.2 72 -13.5 7.7
00:25 1021 30.15 850 25.1 -9.3 15.3 72 -13.4 7.8
00:30 1021 30.15 850 25.1 -9.2 15.5 73 -13.2 8.2
00:35 1021 30.15 850 25.1 -9.4 15.2 71 -13.6 7.5
00:40 1021 30.15 850 25.1 -9.8 14.5 71 -14.1 6.6
00:45 1021 30.15 850 25.1 -9.9 14.2 70 -14.3 6.2
00:50 1021 30.15 850 25.1 -9.9 14.1 70 -14.5 5.9
00:55 1021 30.15 850 25.1 -10.1 13.9 67 -15.1 4.8
01:00 1021 30.15 850 25.1 -10 14 66 -15.2 4.7
01:05 1021 30.15 850 25.1 -10 14 66 -15.2 4.6
01:10 1021 30.15 850 25.1 -10 14 66 -15.3 4.5
01:15 1021 30.15 850 25.1 -10.1 13.8 66 -15.3 4.4
01:20 1021 30.15 850 25.1 -9.9 14.2 66 -15.1 4.8
01:25 1021 30.15 850 25.1 -10 13.9 66 -15.2 4.6
01:30 1021 30.15 850 25.1 -10.2 13.6 67 -15.2 4.7
01:35 1021 30.15 850 25.1 -10.1 13.8 67 -15.2 4.6
01:40 1021 30.15 850 25.1 -10.3 13.5 68 -15.1 4.8
01:45 1021 30.15 850 25.1 -10.5 13.1 68 -15.3 4.5
01:50 1021 30.15 850 25.1 -10.7 12.7 71 -15 4.9
01:55 1021 30.15 850 25.1 -10.6 12.9 69 -15.2 4.6
02:00 1021 30.15 850 25.1 -10.6 13 70 -15.1 4.8
02:05 1021 30.15 850 25.1 -10.7 12.8 70 -15.2 4.7
02:10 1021 30.15 850 25.1 -10.8 12.6 71 -15 5
02:15 1021 30.15 850 25.1 -10.7 12.7 70 -15.2 4.7
02:20 1021 30.15 850 25.1 -10.6 13 69 -15.2 4.6
02:25 1021 30.15 851 25.13 -10.5 13.1 70 -15 4.9
02:30 1021 30.15 851 25.13 -10.5 13 66 -15.7 3.8
02:35 1021 30.15 851 25.13 -10.5 13.1 66 -15.6 3.9
02:40 1021 30.15 851 25.13 -10.8 12.6 67 -15.9 3.4
02:45 1021 30.15 851 25.13 -10.7 12.7 67 -15.6 3.9
02:50 1022 30.18 851 25.13 -10.8 12.6 69 -15.5 4.2
02:55 1022 30.18 851 25.13 -10.9 12.3 69 -15.6 3.9
03:00 1022 30.18 851 25.13 -10.9 12.3 69 -15.6 3.9
03:05 1022 30.18 851 25.13 -11.4 11.5 70 -15.8 3.6
03:10 1022 30.18 851 25.13 -11.8 10.8 73 -15.8 3.6
03:15 1022 30.18 851 25.13 -12 10.4 71 -16.2 2.8
03:20 1022 30.18 851 25.13 -12 10.4 73 -16 3.2
03:25 1022 30.18 851 25.13 -12 10.5 71 -16.1 2.9
03:30 1022 30.18 851 25.13 -11.9 10.6 69 -16.4 2.4
03:35 1022 30.18 851 25.13 -11.7 10.9 69 -16.3 2.7
03:40 1022 30.18 851 25.13 -11.9 10.6 69 -16.4 2.4
03:45 1022 30.18 851 25.13 -11.9 10.6 68 -16.7 2
03:50 1022 30.18 851 25.13 -12.2 10 69 -16.8 1.7
03:55 1022 30.18 851 25.13 -12.3 9.9 69 -16.9 1.6
04:00 1021 30.15 851 25.13 -12.1 10.2 68 -16.9 1.6
04:05 1021 30.15 851 25.13 -12 10.4 68 -16.8 1.7
04:10 1021 30.15 850 25.1 -11.8 10.8 67 -16.8 1.8
04:15 1021 30.15 851 25.13 -11.9 10.6 68 -16.7 1.9
04:20 1021 30.15 851 25.13 -11.9 10.6 68 -16.7 2
04:25 1021 30.15 851 25.13 -11.8 10.7 68 -16.6 2.2
04:30 1021 30.15 851 25.13 -11.9 10.6 68 -16.6 2.1
04:35 1021 30.15 851 25.13 -12 10.5 68 -16.7 1.9
04:40 1021 30.15 851 25.13 -12.2 10.1 68 -16.9 1.6
04:45 1021 30.15 851 25.13 -12.4 9.8 69 -17 1.5
04:50 1021 30.15 851 25.13 -12.3 9.8 69 -16.9 1.6
04:55 1021 30.15 851 25.13 -12.3 10 68 -17 1.5
05:00 1021 30.15 851 25.13 -12.2 10.1 68 -16.9 1.6
05:05 1021 30.15 851 25.13 -12.2 10 71 -16.6 2.2
05:10 1021 30.15 851 25.13 -12.2 10.1 72 -16.3 2.7
05:15 1021 30.15 851 25.13 -12.3 9.8 71 -16.6 2.1
05:20 1021 30.15 851 25.13 -12.2 10 74 -16 3.2
05:25 1021 30.15 851 25.13 -12.4 9.7 75 -15.9 3.3
05:30 1021 30.15 851 25.13 -12.3 9.8 75 -15.9 3.3
05:35 1021 30.15 851 25.13 -12.2 10 75 -15.8 3.6
05:40 1021 30.15 851 25.13 -12.2 10 75 -15.8 3.5
05:45 1021 30.15 851 25.13 -12.5 9.6 76 -15.8 3.5
05:50 1021 30.15 851 25.13 -12.7 9.2 77 -15.9 3.3
05:55 1021 30.15 851 25.13 -12.8 9 78 -15.9 3.3
06:00 1021 30.15 851 25.13 -12.8 9 79 -15.6 3.9
06:05 1022 30.18 851 25.13 -12.6 9.3 80 -15.4 4.3
06:10 1022 30.18 851 25.13 -12.5 9.5 79 -15.4 4.3
06:15 1022 30.18 851 25.13 -12.4 9.7 78 -15.4 4.3
06:20 1022 30.18 851 25.13 -12.3 9.9 76 -15.7 3.8
06:25 1021 30.15 851 25.13 -12.2 10 76 -15.7 3.8
06:30 1021 30.15 851 25.13 -12.1 10.2 75 -15.7 3.7
06:35 1021 30.15 851 25.13 -12.3 9.8 73 -16.2 2.8
06:40 1021 30.15 851 25.13 -12.4 9.8 70 -16.8 1.7
06:45 1021 30.15 851 25.13 -12.6 9.3 71 -16.9 1.6
06:50 1022 30.18 851 25.13 -12.8 8.9 73 -16.8 1.8
06:55 1022 30.18 851 25.13 -13.1 8.5 74 -16.8 1.7
07:00 1022 30.18 851 25.13 -13.2 8.3 72 -17.1 1.1
07:05 1022 30.18 851 25.13 -12.9 8.8 69 -17.4 0.7
07:10 1022 30.18 851 25.13 -12.9 8.8 70 -17.3 0.8
07:15 1021 30.15 851 25.13 -13.2 8.3 70 -17.6 0.4
07:20 1022 30.18 851 25.13 -13.1 8.5 69 -17.5 0.4
07:25 1022 30.18 851 25.13 -12.6 9.4 70 -17 1.4
07:30 1022 30.18 851 25.13 -11.9 10.6 67 -16.8 1.8
07:35 1022 30.18 851 25.13 -11.8 10.8 68 -16.6 2.1
07:40 1022 30.18 851 25.13 -12 10.3 70 -16.4 2.5
07:45 1022 30.18 851 25.13 -12.2 10.1 72 -16.3 2.6
07:50 1022 30.18 851 25.13 -12 10.4 68 -16.8 1.7
07:55 1022 30.18 851 25.13 -12.1 10.2 71 -16.3 2.6
08:00 1022 30.18 851 25.13 -12.2 10.1 72 -16.3 2.6
08:05 1022 30.18 851 25.13 -12.3 9.8 74 -16 3.2
08:10 1022 30.18 851 25.13 -12.4 9.7 73 -16.2 2.8
08:15 1022 30.18 851 25.13 -12.2 10.1 74 -16 3.3
08:20 1022 30.18 851 25.13 -12.4 9.7 74 -16.1 3
08:25 1022 30.18 851 25.13 -12.6 9.3 75 -16.2 2.8
08:30 1022 30.18 851 25.13 -12.8 8.9 75 -16.4 2.4
08:35 1022 30.18 851 25.13 -12.9 8.9 75 -16.5 2.4
08:40 1022 30.18 851 25.13 -12.8 8.9 75 -16.4 2.5
08:45 1022 30.18 851 25.13 -12.7 9.1 76 -16.2 2.9
08:50 1022 30.18 851 25.13 -12.7 9.2 76 -16.1 3.1
08:55 1022 30.18 851 25.13 -12.6 9.3 75 -16.2 2.9
09:00 1022 30.18 851 25.13 -12.6 9.4 74 -16.3 2.7
09:05 1022 30.18 851 25.13 -12.4 9.6 74 -16.2 2.9
09:10 1022 30.18 851 25.13 -12.2 10 73 -16.1 3.1
09:15 1022 30.18 851 25.13 -12.1 10.2 73 -15.9 3.3
09:20 1022 30.18 851 25.13 -12 10.3 73 -15.9 3.3
09:25 1022 30.18 851 25.13 -11.9 10.7 72 -15.9 3.3
09:30 1022 30.18 851 25.13 -11.7 10.9 71 -16 3.2
09:35 1022 30.18 851 25.13 -11.7 10.9 71 -15.9 3.3
09:40 1022 30.18 851 25.13 -11.6 11.2 71 -15.9 3.5
09:45 1022 30.18 851 25.13 -11.4 11.5 70 -15.8 3.6
09:50 1021 30.15 851 25.13 -11.3 11.7 70 -15.7 3.7
09:55 1022 30.18 851 25.13 -10.9 12.3 69 -15.6 3.9
10:00 1022 30.18 851 25.13 -10.7 12.7 69 -15.3 4.4
10:05 1022 30.18 851 25.13 -10.4 13.3 69 -15.1 4.8
10:10 1022 30.18 851 25.13 -10.4 13.3 68 -15.2 4.7
10:15 1022 30.18 851 25.13 -10.1 13.8 66 -15.3 4.5
10:20 1022 30.18 851 25.13 -10.1 13.8 66 -15.2 4.6
10:25 1022 30.18 851 25.13 -9.8 14.3 65 -15.2 4.6
10:30 1022 30.18 851 25.13 -9.6 14.7 65 -15 4.9
10:35 1022 30.18 851 25.13 -9.4 15.1 63 -15.2 4.7
10:40 1022 30.18 851 25.13 -8.8 16.1 61 -15 5
10:45 1022 30.18 851 25.13 -8.7 16.3 61 -14.9 5.2
10:50 1022 30.18 851 25.13 -8.5 16.7 60 -14.9 5.3
10:55 1022 30.18 851 25.13 -8.1 17.5 60 -14.6 5.7
11:00 1022 30.18 851 25.13 -7.7 18.2 57 -14.8 5.3
11:05 1022 30.18 851 25.13 -8.1 17.5 61 -14.4 6.1
11:10 1022 30.18 851 25.13 -8 17.6 61 -14.3 6.2
11:15 1022 30.18 851 25.13 -8.1 17.5 61 -14.4 6.2
11:20 1022 30.18 851 25.13 -7.9 17.8 61 -14.3 6.3
11:25 1021 30.15 851 25.13 -8.2 17.2 62 -14.3 6.3
11:30 1021 30.15 851 25.13 -8 17.6 61 -14.2 6.4
11:35 1021 30.15 850 25.1 -7.9 17.8 60 -14.4 6
11:40 1021 30.15 850 25.1 -8.1 17.4 61 -14.4 6.1
11:45 1021 30.15 850 25.1 -8.8 16.2 63 -14.5 5.9
11:50 1021 30.15 850 25.1 -8.2 17.2 62 -14.4 6.1
11:55 1021 30.15 850 25.1 -7.8 18 60 -14.2 6.5
12:00 1021 30.15 850 25.1 -7.4 18.7 59 -14.1 6.7
12:05 1021 30.15 850 25.1 -7.4 18.8 59 -14 6.7
12:10 1021 30.15 850 25.1 -7.1 19.2 55 -14.7 5.6
12:15 1021 30.15 850 25.1 -6.8 19.8 54 -14.7 5.5
12:20 1021 30.15 850 25.1 -7 19.4 56 -14.3 6.2
12:25 1021 30.15 850 25.1 -7 19.4 56 -14.4 6.2
12:30 1021 30.15 850 25.1 -6.9 19.5 57 -14.1 6.7
12:35 1021 30.15 850 25.1 -6.8 19.8 56 -14.1 6.6
12:40 1021 30.15 850 25.1 -6.8 19.7 57 -13.9 6.9
12:45 1021 30.15 850 25.1 -6.9 19.5 56 -14.4 6.1
12:50 1021 30.15 850 25.1 -6.9 19.6 56 -14.3 6.3
12:55 1020 30.12 850 25.1 -7 19.4 56 -14.3 6.2
13:00 1020 30.12 850 25.1 -7 19.4 56 -14.4 6
13:05 1020 30.12 849 25.07 -6.9 19.6 56 -14.2 6.5
13:10 1020 30.12 849 25.07 -7.1 19.2 54 -14.9 5.2
13:15 1020 30.12 849 25.07 -7.2 19.1 55 -14.7 5.6
13:20 1020 30.12 849 25.07 -7.5 18.5 59 -14.3 6.3
13:25 1020 30.12 849 25.07 -7.8 17.9 60 -14.4 6.2
13:30 1020 30.12 849 25.07 -8.2 17.2 61 -14.5 6
13:35 1020 30.12 849 25.07 -8.4 16.9 60 -14.7 5.5
13:40 1020 30.12 849 25.07 -8.2 17.2 59 -14.8 5.3
13:45 1020 30.12 849 25.07 -7.4 18.6 56 -14.9 5.2
13:50 1020 30.12 849 25.07 -7.5 18.5 59 -14.3 6.3
13:55 1020 30.12 849 25.07 -7.7 18.2 55 -15.2 4.7
14:00 1019 30.09 849 25.07 -8 17.5 58 -14.9 5.2
14:05 1019 30.09 849 25.07 -7.9 17.8 58 -14.7 5.5
14:10 1019 30.09 849 25.07 -7.5 18.6 56 -14.8 5.4
14:15 1019 30.09 849 25.07 -7.4 18.7 58 -14.3 6.3
14:20 1019 30.09 848 25.04 -7.8 18 59 -14.5 5.8
14:25 1019 30.09 848 25.04 -7.8 17.9 58 -14.7 5.6
14:30 1019 30.09 848 25.04 -7.4 18.6 58 -14.3 6.2
14:35 1019 30.09 848 25.04 -7.1 19.1 58 -14.1 6.6
14:40 1019 30.09 848 25.04 -7.1 19.3 57 -14.3 6.2
14:45 1019 30.09 848 25.04 -7.3 18.9 59 -14 6.8
14:50 1019 30.09 848 25.04 -7.7 18.2 61 -14 6.8
14:55 1019 30.09 848 25.04 -7.8 18 62 -13.8 7.2
15:00 1019 30.09 848 25.04 -7.8 17.9 62 -13.9 7
15:05 1019 30.09 848 25.04 -8 17.7 65 -13.5 7.7
15:10 1019 30.09 848 25.04 -8.3 17.1 64 -14.1 6.7
15:15 1019 30.09 848 25.04 -8.3 17.1 63 -14.2 6.5
15:20 1019 30.09 848 25.04 -8.3 17 63 -14.1 6.6
15:25 1019 30.09 848 25.04 -8.6 16.5 66 -13.9 6.9
15:30 1019 30.09 848 25.04 -8.8 16.1 66 -14.1 6.6
15:35 1019 30.09 848 25.04 -8.8 16.2 65 -14.1 6.5
15:40 1019 30.09 848 25.04 -8.7 16.4 65 -14.2 6.4
15:45 1019 30.09 848 25.04 -8.9 15.9 66 -14.2 6.4
15:50 1019 30.09 848 25.04 -9.1 15.6 67 -14.2 6.4
15:55 1019 30.09 848 25.04 -9.2 15.4 68 -14.1 6.6
16:00 1019 30.09 848 25.04 -9.3 15.3 68 -14.2 6.5
16:05 1019 30.09 848 25.04 -9.3 15.3 69 -13.9 6.9
16:10 1018 30.06 848 25.04 -9.2 15.4 70 -13.8 7.2
16:15 1018 30.06 848 25.04 -9.1 15.6 68 -13.9 6.9
16:20 1018 30.06 848 25.04 -9.2 15.5 69 -13.8 7.1
16:25 1018 30.06 848 25.04 -9.1 15.7 68 -13.9 6.9
16:30 1018 30.06 847 25.01 -9 15.8 69 -13.8 7.2
16:35 1018 30.06 847 25.01 -9.1 15.6 69 -13.7 7.3
16:40 1018 30.06 847 25.01 -9.4 15.1 71 -13.7 7.4
16:45 1018 30.06 847 25.01 -9.4 15.2 70 -13.8 7.1
16:50 1018 30.06 847 25.01 -9.5 14.9 70 -13.9 6.9
16:55 1018 30.06 847 25.01 -9.6 14.8 70 -14 6.7
17:00 1018 30.06 847 25.01 -9.6 14.8 70 -14.1 6.7
17:05 1018 30.06 847 25.01 -9.5 15 70 -13.9 7
17:10 1018 30.06 847 25.01 -9.5 14.9 71 -13.8 7.1
17:15 1018 30.06 847 25.01 -9.5 14.9 71 -13.9 7.1
17:20 1018 30.06 847 25.01 -9.4 15 70 -14 6.9
17:25 1017 30.03 847 25.01 -9.6 14.8 71 -13.9 7
17:30 1017 30.03 846 24.98 -9.7 14.6 71 -14 6.9
17:35 1017 30.03 846 24.98 -9.7 14.5 71 -14.1 6.6
17:40 1017 30.03 846 24.98 -9.7 14.5 71 -14 6.7
17:45 1017 30.03 846 24.98 -9.7 14.5 71 -14 6.7
17:50 1017 30.03 846 24.98 -9.6 14.7 70 -14.1 6.7
17:55 1017 30.03 846 24.98 -9.6 14.8 70 -14.1 6.6
18:00 1017 30.03 846 24.98 -9.6 14.7 69 -14.2 6.4
18:05 1017 30.03 846 24.98 -9.7 14.6 69 -14.3 6.2
18:10 1017 30.03 846 24.98 -9.7 14.6 70 -14.2 6.4
18:15 1017 30.03 846 24.98 -9.6 14.7 69 -14.3 6.3
18:20 1017 30.03 846 24.98 -9.7 14.6 70 -14.2 6.4
18:25 1017 30.03 846 24.98 -9.7 14.5 70 -14.2 6.4
18:30 1016 30 846 24.98 -9.7 14.5 70 -14.2 6.4
18:35 1016 30 846 24.98 -9.8 14.4 71 -14.2 6.5
18:40 1016 30 846 24.98 -9.7 14.5 71 -14 6.8
18:45 1016 30 845 24.95 -9.8 14.4 74 -13.6 7.5
18:50 1016 30 845 24.95 -9.9 14.2 75 -13.5 7.7
18:55 1016 30 845 24.95 -9.7 14.5 75 -13.4 7.9
19:00 1016 30 845 24.95 -9.6 14.8 74 -13.3 8
19:05 1016 30 845 24.95 -9.5 14.9 74 -13.3 8.1
19:10 1016 30 845 24.95 -9.5 15 74 -13.3 8
19:15 1016 30 845 24.95 -9.5 14.8 74 -13.3 8
19:20 1016 30 845 24.95 -9.6 14.8 74 -13.4 7.9
19:25 1016 30 845 24.95 -9.7 14.6 74 -13.4 7.8
19:30 1016 30 845 24.95 -9.9 14.3 75 -13.5 7.7
19:35 1016 30 845 24.95 -9.8 14.3 75 -13.5 7.6
19:40 1016 30 845 24.95 -9.7 14.6 72 -13.9 7.1
19:45 1016 30 845 24.95 -9.6 14.7 71 -13.9 7
19:50 1016 30 845 24.95 -9.6 14.8 72 -13.8 7.2
19:55 1016 30 845 24.95 -9.7 14.6 73 -13.6 7.5
20:00 1016 30 845 24.95 -9.7 14.6 73 -13.6 7.6
20:05 1016 30 845 24.95 -9.6 14.7 75 -13.3 8
20:10 1016 30 845 24.95 -9.7 14.5 76 -13.2 8.2
20:15 1016 30 845 24.95 -9.8 14.4 74 -13.5 7.7
20:20 1015 29.97 845 24.95 -9.8 14.3 75 -13.4 7.9
20:25 1015 29.97 844 24.92 -9.8 14.4 75 -13.4 7.9
20:30 1015 29.97 844 24.92 -9.8 14.5 75 -13.3 8
20:35 1015 29.97 844 24.92 -9.8 14.4 75 -13.3 8
20:40 1015 29.97 844 24.92 -9.8 14.5 75 -13.3 8
20:45 1015 29.97 844 24.92 -9.7 14.6 74 -13.6 7.6
20:50 1015 29.97 844 24.92 -9.7 14.6 74 -13.5 7.6
20:55 1015 29.97 844 24.92 -9.6 14.7 72 -13.8 7.2
21:00 1015 29.97 844 24.92 -9.5 14.9 71 -13.8 7.2
21:05 1015 29.97 844 24.92 -9.3 15.2 71 -13.6 7.5
21:10 1015 29.97 844 24.92 -9.1 15.6 71 -13.5 7.7
21:15 1015 29.97 844 24.92 -9 15.9 71 -13.4 8
21:20 1015 29.97 844 24.92 -8.8 16.2 70 -13.4 7.9
21:25 1014 29.94 844 24.92 -8.8 16.2 70 -13.3 8.1
21:30 1014 29.94 844 24.92 -8.9 16 73 -12.9 8.8
21:35 1014 29.94 844 24.92 -8.9 16.1 73 -12.8 9
21:40 1014 29.94 844 24.92 -8.9 16.1 73 -12.8 9
21:45 1014 29.94 844 24.92 -8.9 16 74 -12.7 9.1
21:50 1014 29.94 844 24.92 -9 15.9 74 -12.7 9.1
21:55 1014 29.94 843 24.89 -9 15.8 75 -12.7 9.1
22:00 1014 29.94 843 24.89 -9.1 15.7 75 -12.7 9.2
22:05 1014 29.94 843 24.89 -9.2 15.5 76 -12.6 9.3
22:10 1014 29.94 843 24.89 -9.2 15.4 77 -12.5 9.5
22:15 1014 29.94 843 24.89 -9.3 15.3 78 -12.4 9.6
22:20 1014 29.94 843 24.89 -9.3 15.2 79 -12.3 9.8
22:25 1014 29.94 843 24.89 -9.6 14.8 81 -12.2 10
22:30 1014 29.94 843 24.89 -9.6 14.7 81 -12.4 9.8
22:35 1014 29.94 843 24.89 -10 14 83 -12.4 9.7
22:40 1014 29.94 843 24.89 -10.2 13.7 84 -12.3 9.9
22:45 1014 29.94 843 24.89 -10.2 13.7 84 -12.4 9.7
22:50 1014 29.94 843 24.89 -10.3 13.5 85 -12.3 9.8
22:55 1013 29.91 843 24.89 -10.3 13.5 86 -12.2 10
23:00 1013 29.91 843 24.89 -10.2 13.6 85 -12.2 10
23:05 1013 29.91 843 24.89 -10.2 13.6 86 -12.1 10.3
23:10 1013 29.91 842 24.86 -10.2 13.7 85 -12.2 10.1
23:15 1013 29.91 842 24.86 -10.3 13.6 86 -12.1 10.1
23:20 1013 29.91 842 24.86 -10.2 13.7 86 -12.1 10.3
23:25 1013 29.91 842 24.86 -10.1 13.8 85 -12.2 10.1
23:30 1013 29.91 842 24.86 -10.1 13.9 85 -12.1 10.3
23:35 1013 29.91 842 24.86 -10.1 13.9 86 -12 10.3
23:40 1013 29.91 842 24.86 -10.1 13.8 85 -12.2 10.1
23:45 1013 29.91 842 24.86 -10.2 13.7 84 -12.3 9.8
23:50 1012 29.88 842 24.86 -10.3 13.4 84 -12.6 9.4
23:55 1012 29.88 842 24.86 -10.5 13.2 84 -12.7 9.2
24:00 1012 29.88 842 24.86 -10.5 13 83 -12.9 8.9